createdAt,value
2023-03-29T00:01:00.770Z,65.84
2023-03-29T00:03:30.986Z,65.36
2023-03-29T00:06:03.333Z,65.25
2023-03-29T00:08:52.611Z,65.87
2023-03-29T00:11:25.227Z,66.23
2023-03-29T00:13:54.066Z,66.56
2023-03-29T00:16:25.571Z,66.64
2023-03-29T00:18:55.965Z,66.86
2023-03-29T00:21:24.960Z,66.57
2023-03-29T00:23:57.803Z,66.87
2023-03-29T00:26:28.975Z,67.04
2023-03-29T00:29:00.386Z,67.42
2023-03-29T00:32:00.115Z,67.67
2023-03-29T00:34:31.931Z,68.23
2023-03-29T00:37:04.616Z,68.28
2023-03-29T00:39:42.168Z,68.83
2023-03-29T00:42:20.388Z,69.17
2023-03-29T00:45:38.299Z,69.23
2023-03-29T00:48:15.489Z,69.26
2023-03-29T00:50:52.845Z,68.90
2023-03-29T00:53:33.561Z,68.63
2023-03-29T00:56:11.975Z,68.46
2023-03-29T00:59:01.887Z,68.19
2023-03-29T01:01:34.409Z,67.73
2023-03-29T01:04:23.858Z,67.27
2023-03-29T01:07:21.692Z,67.88
2023-03-29T01:10:00.916Z,68.93
2023-03-29T01:12:36.490Z,68.78
2023-03-29T01:15:06.346Z,69.11
2023-03-29T01:17:36.728Z,68.58
2023-03-29T01:20:13.092Z,68.55
2023-03-29T01:23:03.328Z,68.48
2023-03-29T01:25:59.012Z,68.68
2023-03-29T01:28:29.230Z,68.57
2023-03-29T01:31:06.410Z,68.67
2023-03-29T01:33:44.590Z,68.76
2023-03-29T01:36:17.886Z,68.96
2023-03-29T01:39:04.658Z,68.95
2023-03-29T01:42:06.975Z,69.23
2023-03-29T01:45:04.366Z,69.31
2023-03-29T01:47:45.883Z,69.28
2023-03-29T01:50:19.759Z,69.58
2023-03-29T01:53:02.260Z,69.85
2023-03-29T01:55:38.614Z,69.72
2023-03-29T01:58:14.074Z,70.06
2023-03-29T02:00:44.691Z,70.01
2023-03-29T02:03:21.711Z,69.66
2023-03-29T02:05:54.778Z,69.96
2023-03-29T02:08:25.246Z,69.82
2023-03-29T02:10:58.849Z,69.52
2023-03-29T02:13:36.414Z,69.64
2023-03-29T02:16:32.652Z,68.62
2023-03-29T02:19:02.444Z,68.41
2023-03-29T02:21:36.766Z,68.54
2023-03-29T02:24:08.683Z,67.81
2023-03-29T02:26:39.272Z,67.85
2023-03-29T02:29:09.867Z,67.43
2023-03-29T02:31:49.393Z,67.11
2023-03-29T02:34:37.962Z,66.74
2023-03-29T02:37:15.017Z,66.39
2023-03-29T02:39:50.076Z,66.52
2023-03-29T02:42:19.979Z,66.09
2023-03-29T02:44:50.328Z,66.31
2023-03-29T02:47:32.174Z,66.32
2023-03-29T02:50:17.027Z,66.19
2023-03-29T02:53:09.096Z,66.21
2023-03-29T02:55:42.413Z,66.00
2023-03-29T02:58:19.028Z,65.98
2023-03-29T03:00:48.857Z,65.65
2023-03-29T03:03:17.248Z,65.64
2023-03-29T03:05:50.309Z,65.33
2023-03-29T03:08:24.608Z,65.22
2023-03-29T03:10:53.661Z,64.57
2023-03-29T03:13:25.514Z,64.47
2023-03-29T03:16:00.670Z,64.51
2023-03-29T03:18:35.747Z,64.35
2023-03-29T03:21:09.494Z,64.16
2023-03-29T03:23:39.903Z,64.38
2023-03-29T03:26:11.952Z,64.02
2023-03-29T03:28:43.329Z,63.92
2023-03-29T03:31:21.009Z,64.24
2023-03-29T03:34:27.293Z,63.98
2023-03-29T03:37:01.298Z,63.80
2023-03-29T03:39:33.808Z,63.54
2023-03-29T03:42:08.346Z,63.80
2023-03-29T03:44:48.066Z,63.93
2023-03-29T03:47:41.853Z,63.97
2023-03-29T03:50:33.303Z,63.81
2023-03-29T03:53:02.505Z,63.92
2023-03-29T03:55:57.474Z,63.53
2023-03-29T03:59:01.655Z,63.79
2023-03-29T04:01:35.435Z,63.63
2023-03-29T04:04:19.071Z,63.84
2023-03-29T04:07:09.726Z,63.73
2023-03-29T04:10:25.715Z,63.75
2023-03-29T04:13:02.735Z,63.63
2023-03-29T04:15:54.498Z,63.39
2023-03-29T04:18:39.451Z,63.09
2023-03-29T04:21:41.404Z,63.15
2023-03-29T04:24:18.994Z,63.11
2023-03-29T04:27:07.453Z,62.99
2023-03-29T04:30:06.095Z,62.86
2023-03-29T04:33:14.922Z,62.55
2023-03-29T04:35:50.705Z,62.54
2023-03-29T04:38:24.242Z,62.37
2023-03-29T04:41:08.245Z,62.02
2023-03-29T04:44:28.558Z,62.49
2023-03-29T04:47:01.418Z,62.65
2023-03-29T04:50:04.962Z,62.46
2023-03-29T04:53:04.055Z,62.38
2023-03-29T04:55:39.777Z,62.22
2023-03-29T04:58:20.727Z,62.00
2023-03-29T05:01:13.801Z,62.19
2023-03-29T05:08:11.113Z,62.13
2023-03-29T05:11:32.048Z,62.12
2023-03-29T05:14:11.435Z,62.04
2023-03-29T05:16:51.749Z,62.31
2023-03-29T05:19:24.866Z,62.33
2023-03-29T05:22:12.993Z,62.37
2023-03-29T05:24:56.904Z,62.24
2023-03-29T05:27:35.872Z,62.03
2023-03-29T05:30:35.896Z,62.21
2023-03-29T05:33:25.649Z,62.32
2023-03-29T05:36:21.641Z,62.00
2023-03-29T05:47:27.116Z,61.93
2023-03-29T05:50:03.488Z,62.01
2023-03-29T05:53:11.825Z,62.41
2023-03-29T05:56:33.594Z,62.72
2023-03-29T05:59:49.373Z,62.72
2023-03-29T06:02:49.023Z,62.93
2023-03-29T06:05:22.767Z,63.06
2023-03-29T06:08:35.885Z,63.23
2023-03-29T06:11:17.780Z,63.28
2023-03-29T06:15:14.540Z,63.55
2023-03-29T06:18:00.653Z,63.56
2023-03-29T06:20:34.268Z,63.54
2023-03-29T06:23:33.579Z,63.84
2023-03-29T06:26:24.316Z,63.97
2023-03-29T06:29:08.667Z,64.11
2023-03-29T06:31:43.869Z,63.92
2023-03-29T06:35:48.317Z,63.91
2023-03-29T06:47:05.567Z,63.91
2023-03-29T06:50:07.047Z,63.92
2023-03-29T06:57:39.487Z,63.62
2023-03-29T07:00:38.479Z,64.02
2023-03-29T07:03:23.094Z,63.34
2023-03-29T07:06:17.638Z,63.69
2023-03-29T07:09:02.051Z,63.36
2023-03-29T07:12:53.913Z,63.40
2023-03-29T07:15:28.904Z,62.97
2023-03-29T07:19:05.485Z,62.82
2023-03-29T07:22:21.592Z,62.70
2023-03-29T07:25:21.070Z,62.50
2023-03-29T07:28:28.552Z,61.92
2023-03-29T07:31:14.355Z,61.84
2023-03-29T07:34:14.516Z,62.22
2023-03-29T07:37:32.373Z,61.59
2023-03-29T07:40:24.434Z,61.72
2023-03-29T07:43:36.440Z,61.45
2023-03-29T07:46:14.872Z,61.40
2023-03-29T07:48:57.012Z,61.12
2023-03-29T07:51:55.331Z,60.49
2023-03-29T07:54:39.779Z,60.28
2023-03-29T07:57:28.739Z,60.47
2023-03-29T08:00:20.178Z,60.54
2023-03-29T08:03:07.270Z,61.01
2023-03-29T08:05:41.927Z,60.11
2023-03-29T08:09:01.062Z,59.07
2023-03-29T08:11:39.753Z,59.01
2023-03-29T08:14:29.753Z,59.58
2023-03-29T08:17:42.808Z,59.76
2023-03-29T08:20:17.517Z,58.99
2023-03-29T08:22:54.815Z,59.53
2023-03-29T08:26:00.290Z,59.79
2023-03-29T08:28:46.321Z,59.22
2023-03-29T08:31:20.506Z,59.27
2023-03-29T08:33:56.143Z,58.98
2023-03-29T08:36:59.253Z,58.88
2023-03-29T08:39:50.638Z,59.37
2023-03-29T08:43:17.547Z,59.39
2023-03-29T08:46:47.506Z,59.45
2023-03-29T08:49:32.168Z,58.98
2023-03-29T08:52:07.509Z,58.78
2023-03-29T08:54:52.268Z,58.40
2023-03-29T08:57:46.570Z,58.82
2023-03-29T09:00:46.101Z,58.73
2023-03-29T09:03:43.791Z,58.61
2023-03-29T09:06:33.600Z,58.26
2023-03-29T09:09:41.862Z,58.85
2023-03-29T09:13:02.933Z,58.50
2023-03-29T09:16:16.467Z,58.00
2023-03-29T09:19:07.681Z,58.20
2023-03-29T09:22:29.773Z,58.72
2023-03-29T09:25:58.142Z,58.67
2023-03-29T09:28:44.769Z,57.87
2023-03-29T09:31:54.102Z,58.18
2023-03-29T09:34:39.998Z,58.29
2023-03-29T09:37:46.015Z,58.60
2023-03-29T09:40:47.047Z,58.50
2023-03-29T09:43:32.008Z,58.26
2023-03-29T09:46:29.692Z,57.61
2023-03-29T09:49:01.701Z,57.81
2023-03-29T09:52:22.349Z,57.72
2023-03-29T09:55:26.470Z,58.26
2023-03-29T09:58:32.719Z,58.45
2023-03-29T10:01:22.443Z,58.56
2023-03-29T10:03:55.252Z,58.64
2023-03-29T10:06:29.359Z,58.24
2023-03-29T10:09:22.011Z,58.40
2023-03-29T10:14:47.261Z,58.21
2023-03-29T10:17:48.042Z,57.26
2023-03-29T10:20:53.268Z,57.77
2023-03-29T10:23:36.514Z,58.18
2023-03-29T10:26:51.562Z,58.35
2023-03-29T10:29:35.883Z,58.05
2023-03-29T10:33:01.880Z,57.97
2023-03-29T10:35:47.219Z,57.98
2023-03-29T10:38:20.455Z,58.28
2023-03-29T10:41:25.956Z,58.16
2023-03-29T10:43:59.816Z,57.83
2023-03-29T10:46:44.736Z,57.67
2023-03-29T10:50:21.425Z,57.66
2023-03-29T10:54:02.528Z,57.47
2023-03-29T10:56:59.664Z,57.54
2023-03-29T10:59:33.955Z,57.79
2023-03-29T11:02:49.360Z,57.61
2023-03-29T11:05:38.914Z,58.31
2023-03-29T11:08:39.316Z,57.76
2023-03-29T11:12:21.429Z,57.86
2023-03-29T11:16:05.050Z,57.88
2023-03-29T11:19:09.056Z,58.21
2023-03-29T11:22:23.251Z,57.28
2023-03-29T11:29:15.713Z,58.04
2023-03-29T11:32:09.973Z,57.90
2023-03-29T11:35:49.468Z,57.98
2023-03-29T11:38:37.805Z,57.49
2023-03-29T11:41:42.415Z,57.73
2023-03-29T11:44:29.664Z,57.82
2023-03-29T11:47:38.594Z,58.17
2023-03-29T11:50:27.710Z,58.26
2023-03-29T11:53:34.175Z,57.74
2023-03-29T11:56:15.797Z,57.95
2023-03-29T11:58:50.449Z,57.87
2023-03-29T12:02:06.085Z,57.89
2023-03-29T12:05:03.089Z,57.50
2023-03-29T12:07:45.569Z,57.14
2023-03-29T12:10:33.686Z,57.64
2023-03-29T12:13:08.164Z,57.46
2023-03-29T12:15:53.864Z,57.56
2023-03-29T12:23:18.646Z,56.60
2023-03-29T12:30:46.714Z,56.77
2023-03-29T12:33:45.041Z,56.68
2023-03-29T12:37:07.172Z,57.22
2023-03-29T12:40:41.777Z,56.75
2023-03-29T12:43:36.886Z,56.36
2023-03-29T12:46:25.803Z,56.72
2023-03-29T12:49:21.979Z,56.58
2023-03-29T12:53:10.554Z,56.90
2023-03-29T12:56:14.524Z,57.39
2023-03-29T12:59:11.067Z,57.32
2023-03-29T13:01:59.761Z,57.16
2023-03-29T13:04:57.989Z,57.04
2023-03-29T13:07:31.624Z,56.97
2023-03-29T13:10:38.480Z,56.96
2023-03-29T13:13:57.854Z,57.16
2023-03-29T13:16:34.190Z,57.11
2023-03-29T13:19:48.307Z,56.69
2023-03-29T13:23:21.136Z,56.85
2023-03-29T13:25:59.197Z,57.37
2023-03-29T13:28:52.096Z,57.47
2023-03-29T13:37:05.740Z,57.71
2023-03-29T13:41:00.798Z,57.95
2023-03-29T13:43:54.887Z,58.00
2023-03-29T13:46:46.643Z,57.78
2023-03-29T13:49:30.381Z,57.53
2023-03-29T13:52:48.466Z,57.24
2023-03-29T13:56:03.114Z,57.74
2023-03-29T13:58:46.328Z,57.35
2023-03-29T14:02:08.296Z,57.35
2023-03-29T14:05:02.155Z,57.96
2023-03-29T14:08:02.000Z,58.22
2023-03-29T14:10:44.163Z,57.51
2023-03-29T14:13:27.555Z,57.67
2023-03-29T14:16:27.962Z,58.05
2023-03-29T14:19:03.241Z,57.91
2023-03-29T14:22:22.140Z,58.61
2023-03-29T14:25:25.276Z,58.87
2023-03-29T14:28:29.094Z,58.89
2023-03-29T14:31:09.071Z,58.93
2023-03-29T14:34:08.475Z,59.10
2023-03-29T14:37:36.095Z,58.80
2023-03-29T14:40:30.485Z,58.98
2023-03-29T14:43:13.571Z,59.54
2023-03-29T14:46:28.218Z,59.51
2023-03-29T14:54:14.283Z,59.20
2023-03-29T14:57:16.307Z,59.14
2023-03-29T15:01:09.713Z,59.09
2023-03-29T15:04:08.321Z,59.10
2023-03-29T15:06:54.662Z,59.63
2023-03-29T15:10:25.328Z,59.60
2023-03-29T15:13:31.830Z,60.08
2023-03-29T15:16:24.127Z,59.94
2023-03-29T15:19:12.933Z,60.13
2023-03-29T15:21:51.203Z,60.35
2023-03-29T15:24:36.912Z,59.97
2023-03-29T15:27:43.604Z,60.09
2023-03-29T15:30:42.482Z,60.44
2023-03-29T15:33:32.704Z,60.42
2023-03-29T15:36:09.641Z,60.49
2023-03-29T15:38:45.123Z,60.49
2023-03-29T15:41:18.352Z,60.44
2023-03-29T15:43:49.492Z,60.56
2023-03-29T15:46:20.917Z,60.84
2023-03-29T15:48:53.616Z,60.75
2023-03-29T15:51:29.506Z,60.79
2023-03-29T15:57:49.551Z,60.57
2023-03-29T16:01:17.697Z,60.66
2023-03-29T16:04:15.396Z,60.79
2023-03-29T16:07:14.340Z,60.46
2023-03-29T16:09:58.004Z,60.63
2023-03-29T16:13:32.460Z,60.66
2023-03-29T16:16:08.924Z,60.62
2023-03-29T16:18:59.319Z,60.69
2023-03-29T16:22:03.167Z,60.57
2023-03-29T16:24:39.084Z,60.83
2023-03-29T16:27:30.946Z,60.65
2023-03-29T16:31:20.929Z,60.94
2023-03-29T16:34:02.845Z,61.04
2023-03-29T16:36:38.455Z,60.92
2023-03-29T16:39:14.041Z,60.80
2023-03-29T16:41:50.604Z,60.80
2023-03-29T16:44:29.157Z,60.89
2023-03-29T16:47:08.436Z,60.64
2023-03-29T16:50:09.822Z,60.57
2023-03-29T16:52:52.828Z,60.25
2023-03-29T16:55:28.697Z,60.29
2023-03-29T16:58:23.346Z,60.35
2023-03-29T17:01:27.311Z,60.33
2023-03-29T17:04:24.681Z,60.37
2023-03-29T17:07:01.379Z,60.45
2023-03-29T17:09:54.321Z,60.62
2023-03-29T17:12:30.818Z,60.66
2023-03-29T17:15:01.172Z,60.37
2023-03-29T17:17:43.722Z,60.30
2023-03-29T17:20:45.623Z,60.38
2023-03-29T17:23:18.057Z,60.42
2023-03-29T17:25:59.654Z,60.24
2023-03-29T17:28:49.254Z,60.42
2023-03-29T17:31:23.828Z,60.21
2023-03-29T17:34:08.109Z,59.71
2023-03-29T17:36:41.116Z,59.98
2023-03-29T17:46:42.802Z,60.16
2023-03-29T17:50:04.150Z,60.51
2023-03-29T17:53:04.164Z,60.29
2023-03-29T17:56:25.245Z,60.12
2023-03-29T18:00:04.072Z,60.18
2023-03-29T18:03:15.693Z,59.93
2023-03-29T18:05:53.615Z,60.33
2023-03-29T18:08:29.999Z,60.39
2023-03-29T18:11:13.741Z,60.17
2023-03-29T18:14:13.651Z,60.14
2023-03-29T18:16:51.247Z,60.41
2023-03-29T18:19:23.857Z,60.66
2023-03-29T18:21:58.314Z,60.58
2023-03-29T18:24:33.353Z,60.18
2023-03-29T18:27:32.494Z,60.26
2023-03-29T18:30:20.156Z,60.45
2023-03-29T18:33:01.666Z,60.55
2023-03-29T18:35:49.050Z,60.74
2023-03-29T18:38:37.740Z,60.78
2023-03-29T18:41:18.108Z,60.84
2023-03-29T18:44:21.971Z,60.75
2023-03-29T18:47:12.059Z,61.12
2023-03-29T18:49:52.009Z,61.21
2023-03-29T18:52:52.473Z,61.62
2023-03-29T18:56:08.543Z,61.38
2023-03-29T18:59:03.582Z,61.36
2023-03-29T19:02:21.558Z,61.37
2023-03-29T19:05:19.060Z,61.17
2023-03-29T19:08:38.099Z,61.50
2023-03-29T19:11:18.742Z,61.45
2023-03-29T19:14:34.699Z,61.61
2023-03-29T19:17:14.139Z,61.73
2023-03-29T19:19:56.114Z,61.62
2023-03-29T19:22:34.934Z,61.72
2023-03-29T19:25:40.060Z,61.67
2023-03-29T19:28:21.959Z,61.48
2023-03-29T19:31:12.590Z,61.40
2023-03-29T19:33:58.272Z,61.41
2023-03-29T19:36:42.647Z,61.37
2023-03-29T19:46:05.468Z,61.41
2023-03-29T19:49:48.574Z,61.08
2023-03-29T19:52:23.455Z,61.59
2023-03-29T19:55:12.808Z,61.90
2023-03-29T19:58:19.620Z,62.10
2023-03-29T20:01:01.561Z,62.06
2023-03-29T20:03:35.082Z,62.01
2023-03-29T20:06:12.915Z,61.95
2023-03-29T20:08:49.344Z,62.09
2023-03-29T20:11:49.466Z,62.14
2023-03-29T20:14:34.833Z,61.94
2023-03-29T20:17:18.587Z,61.94
2023-03-29T20:19:55.220Z,62.40
2023-03-29T20:22:32.341Z,62.32
2023-03-29T20:25:20.720Z,62.27
2023-03-29T20:27:53.825Z,62.29
2023-03-29T20:30:29.694Z,62.51
2023-03-29T20:33:02.404Z,62.41
2023-03-29T20:35:35.492Z,62.40
2023-03-29T20:38:11.861Z,62.05
2023-03-29T20:40:44.776Z,62.42
2023-03-29T20:43:40.957Z,62.27
2023-03-29T20:46:31.923Z,62.15
2023-03-29T20:49:06.947Z,62.05
2023-03-29T20:52:00.471Z,62.34
2023-03-29T20:54:36.499Z,62.50
2023-03-29T20:57:11.930Z,62.80
2023-03-29T21:00:16.224Z,62.88
2023-03-29T21:02:49.607Z,62.88
2023-03-29T21:05:30.006Z,62.59
2023-03-29T21:08:08.157Z,62.45
2023-03-29T21:10:37.228Z,62.39
2023-03-29T21:13:12.850Z,62.48
2023-03-29T21:15:46.496Z,62.39
2023-03-29T21:18:24.276Z,62.26
2023-03-29T21:20:57.250Z,61.98
2023-03-29T21:23:26.284Z,62.02
2023-03-29T21:25:56.152Z,62.18
2023-03-29T21:28:30.914Z,62.23
2023-03-29T21:31:00.499Z,62.30
2023-03-29T21:33:35.784Z,62.33
2023-03-29T21:36:07.871Z,62.52
2023-03-29T21:38:46.937Z,62.57
2023-03-29T21:41:18.557Z,62.37
2023-03-29T21:43:51.027Z,62.55
2023-03-29T21:46:22.160Z,62.51
2023-03-29T21:48:55.090Z,62.65
2023-03-29T21:51:24.698Z,62.46
2023-03-29T21:53:54.651Z,62.41
2023-03-29T21:56:23.311Z,62.34
2023-03-29T21:58:53.402Z,62.28
2023-03-29T22:01:24.941Z,62.45
2023-03-29T22:03:57.224Z,62.23
2023-03-29T22:06:29.428Z,62.41
2023-03-29T22:09:01.294Z,62.41
2023-03-29T22:11:34.451Z,62.37
2023-03-29T22:14:04.710Z,62.18
2023-03-29T22:16:39.165Z,62.33
2023-03-29T22:19:08.328Z,62.17
2023-03-29T22:24:35.331Z,62.19
2023-03-29T22:27:07.621Z,62.31
2023-03-29T22:32:11.796Z,62.62
2023-03-29T22:34:44.103Z,62.28
2023-03-29T22:37:18.493Z,62.41
2023-03-29T22:39:47.325Z,62.48
2023-03-29T22:42:16.873Z,62.31
2023-03-29T22:44:51.042Z,62.41
2023-03-29T22:47:23.054Z,62.14
2023-03-29T22:49:53.382Z,62.18
2023-03-29T22:52:23.065Z,61.91
2023-03-29T22:54:58.089Z,62.11
2023-03-29T22:57:30.318Z,62.37
2023-03-29T23:00:03.909Z,62.29
2023-03-29T23:02:34.374Z,62.21
2023-03-29T23:05:04.280Z,62.54
2023-03-29T23:07:36.025Z,62.25
2023-03-29T23:10:09.504Z,62.47
2023-03-29T23:12:43.260Z,62.33
2023-03-29T23:15:17.978Z,62.25
2023-03-29T23:17:50.373Z,62.51
2023-03-29T23:20:20.969Z,62.30
2023-03-29T23:22:52.602Z,62.27
2023-03-29T23:25:29.523Z,62.21
2023-03-29T23:27:57.601Z,61.96
2023-03-29T23:30:32.033Z,62.09
2023-03-29T23:33:04.439Z,62.05
2023-03-29T23:35:36.360Z,61.79
2023-03-29T23:38:05.578Z,61.69
2023-03-29T23:40:36.015Z,61.58
2023-03-29T23:43:09.148Z,61.64
2023-03-29T23:45:38.384Z,61.41
2023-03-29T23:48:09.551Z,61.59
2023-03-29T23:50:38.104Z,61.38
2023-03-29T23:53:06.303Z,60.94
2023-03-29T23:55:35.456Z,60.40
2023-03-29T23:58:03.452Z,60.03
